Time;durP1;ratioP1;P1;durP2;ratioP2;P2;SDS_P1;SDS_P2;PMS_P1;PMS_P2;Temp;Humidity;BMP_temperature;BMP_pressure;BME280_temperature;BME280_humidity;BME280_pressure;Samples;Min_cycle;Max_cycle;Signal;HPM_P1;HPM_P2
2023/08/29 04:01:26;;;;;;;0.60;0.20;;;17.30;96.90;;;;;;5423693;23;21031;-75
2023/08/29 04:03:54;;;;;;;0.60;0.10;;;17.30;99.90;;;;;;4895666;29;21045;-76
2023/08/29 04:06:25;;;;;;;0.60;0.10;;;17.20;99.90;;;;;;4895175;29;20458;-76
2023/08/29 04:08:54;;;;;;;0.60;0.10;;;17.10;98.40;;;;;;4895950;29;20942;-75
2023/08/29 04:11:25;;;;;;;0.60;0.10;;;17.10;98.10;;;;;;4895623;29;21071;-75
2023/08/29 04:13:53;;;;;;;0.60;0.10;;;17.10;97.80;;;;;;4897031;29;20454;-76
2023/08/29 04:16:21;;;;;;;0.60;0.10;;;17.10;98.40;;;;;;4896499;29;20895;-77
2023/08/29 04:18:50;;;;;;;0.60;0.10;;;17.10;99.90;;;;;;4896633;29;20806;-77
2023/08/29 04:21:21;;;;;;;0.60;0.10;;;17.00;98.00;;;;;;4896823;29;20540;-77
2023/08/29 04:23:49;;;;;;;0.60;0.10;;;17.00;98.50;;;;;;4896388;29;20489;-77
2023/08/29 04:26:18;;;;;;;0.60;0.10;;;17.00;99.90;;;;;;4896921;29;20485;-77
2023/08/29 04:28:46;;;;;;;0.60;0.10;;;17.00;99.00;;;;;;4897599;29;20462;-77
2023/08/29 04:31:14;;;;;;;0.60;0.10;;;;;;;;;;4889440;29;20493;-77
2023/08/29 04:33:42;;;;;;;0.60;0.10;;;17.00;99.90;;;;;;4892797;29;20458;-78
2023/08/29 04:36:14;;;;;;;0.60;0.10;;;16.90;99.90;;;;;;4901575;29;20495;-76
2023/08/29 04:38:44;;;;;;;0.60;0.10;;;17.00;99.90;;;;;;4902508;29;20449;-78
2023/08/29 04:41:12;;;;;;;0.60;0.10;;;17.00;99.90;;;;;;4903059;29;20506;-77
2023/08/29 04:43:41;;;;;;;0.60;0.10;;;17.00;99.90;;;;;;4891464;29;20486;-78
2023/08/29 04:46:09;;;;;;;0.60;0.10;;;17.00;99.90;;;;;;4887602;29;20572;-72
2023/08/29 04:48:38;;;;;;;0.60;0.10;;;;;;;;;;4896241;29;20450;-76
2023/08/29 04:51:06;;;;;;;0.60;0.10;;;17.10;99.90;;;;;;4897021;29;20480;-76
2023/08/29 04:53:35;;;;;;;0.60;0.10;;;17.10;99.90;;;;;;4896403;29;20445;-75
2023/08/29 04:56:05;;;;;;;0.60;0.10;;;17.10;99.90;;;;;;4896482;29;20881;-76
2023/08/29 04:58:33;;;;;;;0.60;0.10;;;17.10;99.90;;;;;;4897300;29;20453;-76
2023/08/29 05:01:02;;;;;;;0.60;0.10;;;17.20;99.90;;;;;;4896277;29;20513;-75
2023/08/29 05:03:32;;;;;;;0.60;0.10;;;17.20;99.90;;;;;;4896412;29;20500;-77
2023/08/29 05:06:01;;;;;;;0.60;0.10;;;17.10;99.90;;;;;;4896139;29;20480;-75
2023/08/29 05:08:28;;;;;;;0.60;0.10;;;17.20;99.90;;;;;;4901230;29;20457;-77
2023/08/29 05:10:58;;;;;;;0.60;0.20;;;17.10;99.90;;;;;;4896559;29;20493;-76
2023/08/29 05:13:26;;;;;;;0.60;0.10;;;17.20;99.90;;;;;;4897100;29;20446;-76
2023/08/29 05:15:54;;;;;;;0.60;0.10;;;17.10;99.90;;;;;;4897875;29;20524;-75
2023/08/29 05:18:22;;;;;;;0.60;0.10;;;17.10;99.90;;;;;;4897171;29;20456;-75
2023/08/29 05:20:50;;;;;;;0.60;0.20;;;17.20;99.90;;;;;;4896648;29;20532;-76
2023/08/29 05:23:21;;;;;;;0.60;0.10;;;17.20;99.90;;;;;;4895356;29;20507;-76
2023/08/29 05:25:49;;;;;;;0.83;0.83;;;17.20;99.90;;;;;;4895919;29;20542;-76
2023/08/29 05:28:18;;;;;;;0.60;0.10;;;17.20;99.90;;;;;;4896001;29;20938;-76
2023/08/29 05:30:49;;;;;;;0.60;0.10;;;17.20;99.90;;;;;;4892800;29;20569;-77
2023/08/29 05:33:17;;;;;;;0.60;0.10;;;17.20;99.90;;;;;;4896624;29;20873;-76
2023/08/29 05:35:45;;;;;;;0.60;0.10;;;17.20;99.90;;;;;;4904913;29;20520;-77
2023/08/29 05:38:13;;;;;;;0.60;0.20;;;17.20;99.90;;;;;;4902607;29;20468;-75
2023/08/29 05:40:42;;;;;;;0.60;0.10;;;17.20;99.90;;;;;;4886683;29;20498;-75
2023/08/29 05:43:10;;;;;;;0.60;0.10;;;17.30;99.90;;;;;;4898980;29;20500;-76
2023/08/29 05:45:42;;;;;;;0.60;0.10;;;17.20;99.90;;;;;;4886613;29;20485;-76
2023/08/29 05:48:10;;;;;;;0.60;0.10;;;17.20;99.90;;;;;;4899092;29;20508;-76
2023/08/29 05:50:40;;;;;;;0.83;0.40;;;17.20;99.90;;;;;;4902580;29;20556;-76
2023/08/29 05:53:08;;;;;;;0.60;0.10;;;17.30;99.90;;;;;;4902929;29;20445;-76
2023/08/29 05:55:36;;;;;;;0.60;0.10;;;17.20;99.90;;;;;;4906486;29;20457;-76
2023/08/29 05:58:04;;;;;;;0.60;0.10;;;17.20;99.90;;;;;;4897500;29;20472;-76
2023/08/29 06:00:32;;;;;;;0.60;0.10;;;17.30;99.90;;;;;;4899091;29;21337;-77
2023/08/29 06:03:03;;;;;;;0.60;0.10;;;17.30;99.90;;;;;;4898706;29;20482;-76
2023/08/29 06:05:32;;;;;;;0.60;0.10;;;17.30;99.90;;;;;;4900020;29;20570;-76
2023/08/29 06:08:01;;;;;;;0.60;0.10;;;17.40;99.90;;;;;;4897816;29;20485;-75
2023/08/29 06:10:46;;;;;;;0.60;0.30;;;17.40;99.90;;;;;;4894310;29;20485;-76
2023/08/29 06:13:14;;;;;;;0.60;0.10;;;17.50;99.90;;;;;;4898405;29;20449;-77
2023/08/29 06:15:42;;;;;;;0.60;0.10;;;17.40;99.90;;;;;;4899628;29;20445;-76
2023/08/29 06:18:11;;;;;;;0.60;0.10;;;17.40;99.90;;;;;;4899812;29;20457;-77
2023/08/29 06:20:39;;;;;;;0.60;0.10;;;17.40;99.90;;;;;;4902112;29;20953;-77
2023/08/29 06:23:07;;;;;;;0.60;0.10;;;17.40;99.90;;;;;;4898462;29;20450;-76
2023/08/29 06:25:35;;;;;;;0.60;0.10;;;17.40;99.90;;;;;;4899009;29;20490;-77
2023/08/29 06:28:03;;;;;;;0.60;0.10;;;17.40;99.90;;;;;;4900441;29;20466;-77
2023/08/29 06:30:32;;;;;;;0.60;0.10;;;17.50;99.90;;;;;;4902733;29;20499;-77
2023/08/29 06:33:00;;;;;;;0.60;0.10;;;17.50;99.90;;;;;;4904334;29;20485;-77
2023/08/29 06:35:30;;;;;;;0.60;0.10;;;17.50;99.90;;;;;;4905670;29;20470;-76
2023/08/29 06:37:57;;;;;;;0.60;0.10;;;17.50;99.90;;;;;;4902124;29;20447;-76
2023/08/29 06:40:25;;;;;;;0.60;0.10;;;15.40;99.90;;;;;;4900283;29;20514;-77
2023/08/29 06:42:54;;;;;;;0.60;0.13;;;17.60;99.90;;;;;;4899789;29;20890;-76
2023/08/29 06:45:22;;;;;;;0.60;0.10;;;17.60;99.90;;;;;;4902076;29;20579;-76
2023/08/29 06:47:52;;;;;;;0.60;0.10;;;17.60;99.90;;;;;;4902619;29;20823;-77
2023/08/29 06:50:20;;;;;;;0.60;0.10;;;17.60;99.90;;;;;;4903066;29;20473;-76
2023/08/29 06:52:50;;;;;;;0.60;0.20;;;17.70;99.90;;;;;;4901621;29;20538;-77
2023/08/29 06:55:17;;;;;;;0.60;0.10;;;17.70;99.90;;;;;;4901743;29;20506;-76
2023/08/29 06:57:49;;;;;;;0.60;0.10;;;17.80;99.90;;;;;;4899768;29;20449;-78
2023/08/29 07:00:19;;;;;;;0.60;0.10;;;17.80;99.90;;;;;;4900761;29;21025;-78
2023/08/29 07:02:48;;;;;;;0.60;0.10;;;17.80;99.90;;;;;;4901582;29;20445;-77
2023/08/29 07:05:16;;;;;;;0.60;0.10;;;17.80;99.90;;;;;;4902148;29;20539;-77
2023/08/29 07:07:44;;;;;;;0.60;0.10;;;17.80;99.90;;;;;;4900419;29;20454;-77
2023/08/29 07:10:13;;;;;;;0.60;0.10;;;17.90;99.90;;;;;;4899585;29;20521;-76
2023/08/29 07:12:42;;;;;;;0.60;0.17;;;17.90;99.90;;;;;;4898197;29;20486;-78
2023/08/29 07:15:10;;;;;;;0.60;0.10;;;18.80;99.90;;;;;;4898113;29;20956;-76
2023/08/29 07:17:39;;;;;;;0.60;0.10;;;18.00;99.90;;;;;;4897993;29;20955;-77
2023/08/29 07:20:11;;;;;;;0.60;0.13;;;18.00;99.90;;;;;;4898509;29;21081;-76
2023/08/29 07:22:42;;;;;;;0.60;0.20;;;18.10;99.90;;;;;;4897938;29;20521;-76
2023/08/29 07:25:11;;;;;;;0.60;0.30;;;;;;;;;;4897862;29;20493;-76
2023/08/29 07:27:40;;;;;;;0.60;0.20;;;;;;;;;;4899277;29;20449;-77
2023/08/29 07:30:14;;;;;;;0.60;0.10;;;18.20;99.90;;;;;;4900429;29;20478;-76
2023/08/29 07:32:44;;;;;;;0.60;0.10;;;18.10;99.90;;;;;;4900701;29;20497;-76
2023/08/29 07:35:13;;;;;;;0.60;0.10;;;18.20;99.90;;;;;;4900705;29;20480;-77
2023/08/29 07:37:41;;;;;;;0.60;0.10;;;18.20;98.60;;;;;;4900596;29;20449;-76
2023/08/29 07:40:11;;;;;;;0.60;0.10;;;18.30;97.40;;;;;;4897930;29;20648;-76
2023/08/29 07:42:40;;;;;;;0.60;0.10;;;18.20;97.50;;;;;;4898357;29;20451;-76
2023/08/29 07:45:09;;;;;;;0.60;0.10;;;18.30;97.20;;;;;;4900650;29;20554;-77
2023/08/29 07:47:38;;;;;;;0.60;0.10;;;;;;;;;;4902573;29;20485;-76
2023/08/29 07:50:09;;;;;;;0.60;0.20;;;18.40;97.60;;;;;;4896537;29;20479;-75
2023/08/29 07:52:37;;;;;;;0.60;0.10;;;18.40;97.60;;;;;;4896880;29;20478;-76
2023/08/29 07:55:09;;;;;;;0.60;0.10;;;18.50;99.90;;;;;;4898294;29;20853;-78
2023/08/29 07:57:37;;;;;;;0.60;0.20;;;18.50;99.90;;;;;;4898058;29;20467;-76
2023/08/29 08:00:10;;;;;;;0.60;0.20;;;18.60;99.90;;;;;;4898417;29;20451;-76
2023/08/29 08:02:39;;;;;;;0.60;0.10;;;18.60;95.00;;;;;;4898853;29;20457;-77
2023/08/29 08:05:08;;;;;;;0.60;0.20;;;18.60;95.10;;;;;;4897994;29;20491;-75
2023/08/29 08:07:36;;;;;;;0.60;0.10;;;18.70;99.90;;;;;;4906740;29;20451;-75
2023/08/29 08:10:05;;;;;;;0.60;0.13;;;18.80;97.50;;;;;;4904298;29;21031;-77
2023/08/29 08:12:33;;;;;;;0.60;0.10;;;18.80;95.70;;;;;;4905760;29;20504;-77
2023/08/29 08:15:04;;;;;;;0.60;0.10;;;21.60;95.30;;;;;;4905412;29;20529;-76
2023/08/29 08:17:33;;;;;;;0.60;0.10;;;19.00;93.90;;;;;;4899186;29;20450;-77
2023/08/29 08:20:06;;;;;;;0.60;0.10;;;19.00;95.00;;;;;;4896937;29;20456;-77
2023/08/29 08:22:35;;;;;;;0.60;0.20;;;19.00;93.40;;;;;;4897762;29;20468;-76
2023/08/29 08:25:04;;;;;;;0.60;0.10;;;19.10;92.80;;;;;;4898694;29;20574;-76
2023/08/29 08:27:31;;;;;;;0.60;0.10;;;18.70;97.90;;;;;;4900035;29;20463;-77
2023/08/29 08:29:59;;;;;;;0.60;0.10;;;19.10;93.00;;;;;;4897862;29;20462;-77
2023/08/29 08:32:28;;;;;;;0.60;0.10;;;19.20;92.20;;;;;;4900457;29;20467;-76
2023/08/29 08:34:59;;;;;;;0.60;0.20;;;19.20;97.30;;;;;;4898026;29;20857;-76
2023/08/29 08:37:27;;;;;;;0.60;0.13;;;19.20;90.00;;;;;;4898448;29;20941;-76
2023/08/29 08:39:55;;;;;;;0.60;0.10;;;19.20;95.40;;;;;;4899329;29;20473;-76
2023/08/29 08:42:23;;;;;;;0.60;0.10;;;19.20;91.50;;;;;;4899467;29;20834;-77
2023/08/29 08:44:51;;;;;;;0.60;0.10;;;19.30;96.40;;;;;;4896874;29;21092;-78
2023/08/29 08:47:19;;;;;;;0.90;0.37;;;;;;;;;;4901431;29;20886;-77
2023/08/29 08:49:48;;;;;;;0.60;0.20;;;;;;;;;;4899641;29;20536;-77
2023/08/29 08:52:17;;;;;;;0.60;0.10;;;19.20;82.60;;;;;;4896269;29;20483;-77
2023/08/29 08:54:46;;;;;;;0.60;0.10;;;19.20;91.70;;;;;;4900209;29;21061;-77
2023/08/29 08:57:17;;;;;;;0.60;0.10;;;;;;;;;;4897010;29;20474;-78
2023/08/29 08:59:46;;;;;;;0.60;0.10;;;19.30;81.30;;;;;;4896149;29;20453;-76
2023/08/29 09:02:14;;;;;;;0.60;0.20;;;19.30;83.90;;;;;;4902196;29;20940;-77
2023/08/29 09:04:42;;;;;;;0.60;0.10;;;19.40;91.60;;;;;;4896469;29;20444;-77
2023/08/29 09:07:10;;;;;;;2.10;1.33;;;19.40;91.00;;;;;;4897939;29;20489;-78
2023/08/29 09:09:40;;;;;;;0.60;0.10;;;19.40;92.50;;;;;;4901368;29;21012;-77
2023/08/29 09:12:08;;;;;;;0.60;0.13;;;19.80;89.70;;;;;;4900382;29;20479;-79
2023/08/29 09:14:36;;;;;;;0.60;0.20;;;19.60;84.20;;;;;;4897882;29;20547;-79
2023/08/29 09:17:05;;;;;;;0.60;0.10;;;19.60;92.30;;;;;;4900053;29;20536;-77
2023/08/29 09:19:34;;;;;;;0.80;0.27;;;19.70;81.60;;;;;;4900364;29;20449;-78
2023/08/29 09:22:05;;;;;;;0.60;0.20;;;19.70;78.30;;;;;;4901112;29;20482;-78
2023/08/29 09:24:35;;;;;;;0.60;0.10;;;19.70;76.80;;;;;;4901036;29;20465;-77
2023/08/29 09:27:08;;;;;;;0.60;0.10;;;19.70;77.40;;;;;;4899924;29;20565;-77
2023/08/29 09:29:37;;;;;;;0.97;0.50;;;19.80;88.70;;;;;;4900320;29;20528;-78
2023/08/29 09:32:13;;;;;;;0.60;0.10;;;19.70;75.00;;;;;;4900519;29;21049;-78
2023/08/29 09:34:41;;;;;;;0.60;0.10;;;19.60;73.60;;;;;;4899604;29;20793;-78
2023/08/29 09:37:12;;;;;;;1.23;0.57;;;19.60;84.80;;;;;;4900127;29;20520;-78
2023/08/29 09:39:40;;;;;;;0.60;0.10;;;19.50;73.20;;;;;;4899947;29;20460;-77
2023/08/29 09:42:11;;;;;;;0.60;0.20;;;19.50;73.50;;;;;;4904116;29;20561;-78
2023/08/29 09:44:40;;;;;;;0.60;0.20;;;19.50;84.50;;;;;;4901994;29;20935;-78
2023/08/29 09:47:10;;;;;;;0.60;0.20;;;19.60;76.70;;;;;;4898909;29;20586;-77
2023/08/29 09:49:43;;;;;;;0.60;0.20;;;19.60;74.30;;;;;;4898663;29;20456;-76
2023/08/29 09:52:18;;;;;;;0.60;0.20;;;19.60;73.90;;;;;;4898242;29;20476;-78
2023/08/29 09:54:48;;;;;;;0.70;0.47;;;19.60;75.80;;;;;;4898543;29;20513;-77
2023/08/29 09:57:19;;;;;;;0.60;0.20;;;19.70;86.70;;;;;;4901296;29;20523;-78
2023/08/29 09:59:48;;;;;;;0.70;0.37;;;19.70;78.20;;;;;;4899262;29;20449;-76
2023/08/29 10:02:18;;;;;;;0.60;0.20;;;19.70;78.10;;;;;;4898978;29;20486;-76
2023/08/29 10:04:49;;;;;;;0.60;0.10;;;19.60;77.40;;;;;;4899527;29;20576;-77
2023/08/29 10:07:23;;;;;;;0.60;0.10;;;19.70;91.20;;;;;;4899920;29;20495;-77
2023/08/29 10:09:52;;;;;;;0.60;0.20;;;19.70;79.20;;;;;;4901223;29;20451;-79
2023/08/29 10:12:22;;;;;;;0.60;0.10;;;19.60;75.90;;;;;;4901187;29;20475;-77
2023/08/29 10:14:52;;;;;;;0.60;0.10;;;19.60;88.10;;;;;;4900219;29;20941;-76
2023/08/29 10:17:20;;;;;;;0.60;0.10;;;19.40;78.40;;;;;;4899486;29;20451;-76
2023/08/29 10:20:00;;;;;;;0.60;0.10;;;19.50;90.00;;;;;;4899149;29;20461;-79
2023/08/29 10:22:29;;;;;;;0.70;0.33;;;19.50;83.10;;;;;;4898825;29;20553;-77
2023/08/29 10:25:00;;;;;;;0.70;0.40;;;19.40;81.90;;;;;;4897972;29;20457;-76
2023/08/29 10:27:30;;;;;;;0.60;0.10;;;;;;;;;;4898179;29;20505;-78
2023/08/29 10:29:58;;;;;;;0.60;0.20;;;19.10;91.90;;;;;;4899136;29;20455;-76
2023/08/29 10:32:28;;;;;;;0.60;0.20;;;19.20;92.20;;;;;;4898599;29;20469;-77
2023/08/29 10:34:57;;;;;;;0.60;0.10;;;19.10;93.70;;;;;;4900582;29;20552;-77
2023/08/29 10:37:26;;;;;;;0.60;0.20;;;19.20;97.00;;;;;;4898615;29;20455;-77
2023/08/29 10:39:55;;;;;;;0.60;0.10;;;19.20;99.90;;;;;;4898437;29;20455;-77
2023/08/29 10:42:27;;;;;;;0.60;0.10;;;19.20;98.40;;;;;;4898950;29;20542;-76
2023/08/29 10:44:58;;;;;;;0.60;0.10;;;19.20;99.50;;;;;;4898568;29;20467;-78
2023/08/29 10:47:27;;;;;;;0.60;0.10;;;19.20;99.90;;;;;;4898044;29;20590;-76
2023/08/29 10:49:58;;;;;;;0.60;0.10;;;19.20;99.40;;;;;;4897443;29;20458;-78
2023/08/29 10:52:37;;;;;;;0.60;0.10;;;19.20;99.50;;;;;;4897242;29;20468;-75
2023/08/29 10:55:08;;;;;;;0.60;0.13;;;19.20;99.90;;;;;;4901120;29;20630;-77
2023/08/29 10:57:36;;;;;;;0.60;0.10;;;19.30;99.90;;;;;;4902606;29;20446;-75
2023/08/29 11:00:16;;;;;;;0.60;0.10;;;19.40;98.90;;;;;;4900188;29;20546;-75
2023/08/29 11:02:45;;;;;;;0.60;0.20;;;19.30;99.90;;;;;;4901004;29;20514;-76
2023/08/29 11:05:15;;;;;;;0.60;0.10;;;19.30;99.90;;;;;;4900485;29;20456;-75
2023/08/29 11:07:43;;;;;;;0.60;0.20;;;19.30;99.90;;;;;;4899448;29;20535;-76
2023/08/29 11:10:16;;;;;;;0.60;0.10;;;19.50;97.50;;;;;;4906309;29;20449;-77
2023/08/29 11:13:07;;;;;;;1.73;0.90;;;19.50;99.90;;;;;;4904324;29;20538;-78
2023/08/29 11:16:08;;;;;;;0.60;0.10;;;19.60;74.50;;;;;;4907400;29;20453;-77
2023/08/29 11:18:36;;;;;;;0.60;0.10;;;19.60;85.30;;;;;;4901671;29;20516;-77
2023/08/29 11:21:08;;;;;;;0.60;0.10;;;19.70;66.50;;;;;;4906772;29;20468;-76
2023/08/29 11:23:41;;;;;;;0.60;0.13;;;19.60;67.70;;;;;;4904558;29;20445;-77
2023/08/29 11:26:09;;;;;;;0.60;0.10;;;19.70;68.10;;;;;;4902777;29;20456;-76
2023/08/29 11:28:42;;;;;;;0.60;0.17;;;19.80;79.90;;;;;;4901079;29;20548;-77
2023/08/29 11:31:12;;;;;;;0.60;0.10;;;19.80;65.20;;;;;;4905624;29;20464;-77
2023/08/29 11:33:40;;;;;;;0.60;0.20;;;19.80;76.40;;;;;;4904852;29;20457;-76
2023/08/29 11:36:09;;;;;;;0.60;0.10;;;19.80;70.70;;;;;;4904559;29;20450;-75
2023/08/29 11:38:40;;;;;;;0.60;0.10;;;19.90;66.70;;;;;;4900827;29;20517;-77
2023/08/29 11:41:07;;;;;;;0.60;0.10;;;20.00;68.10;;;;;;4901880;29;20476;-75
2023/08/29 11:43:56;;;;;;;2.00;0.83;;;20.10;69.20;;;;;;4902115;29;20437;-77
2023/08/29 11:46:46;;;;;;;0.60;0.13;;;20.10;65.70;;;;;;4900743;29;20482;-78
2023/08/29 11:49:16;;;;;;;0.60;0.20;;;20.00;77.40;;;;;;4901003;29;20455;-76
2023/08/29 11:51:45;;;;;;;0.60;0.20;;;20.10;59.20;;;;;;4899736;29;20563;-77
2023/08/29 11:54:38;;;;;;;0.60;0.10;;;20.10;59.60;;;;;;4897660;29;20456;-76
2023/08/29 11:57:06;;;;;;;0.60;0.10;;;20.10;53.20;;;;;;4901839;29;20871;-76
2023/08/29 11:59:36;;;;;;;0.60;0.20;;;20.10;54.90;;;;;;4900199;29;20445;-76
2023/08/29 12:02:06;;;;;;;0.60;0.20;;;20.20;54.60;;;;;;4898301;29;20564;-75
2023/08/29 12:04:33;;;;;;;0.60;0.10;;;20.30;57.70;;;;;;4899270;29;20455;-76
2023/08/29 12:07:12;;;;;;;0.60;0.10;;;20.20;66.70;;;;;;4897872;29;20496;-75
2023/08/29 12:09:42;;;;;;;0.60;0.20;;;20.30;55.20;;;;;;4899754;29;21023;-77
2023/08/29 12:12:27;;;;;;;0.60;0.10;;;20.30;57.00;;;;;;4901472;29;20486;-76
2023/08/29 12:14:55;;;;;;;0.60;0.10;;;20.30;58.00;;;;;;4900122;29;20948;-77
2023/08/29 12:17:33;;;;;;;0.60;0.20;;;20.30;58.50;;;;;;4899601;29;20447;-76
2023/08/29 12:20:01;;;;;;;0.60;0.10;;;20.30;57.50;;;;;;4901520;29;20448;-75
2023/08/29 12:22:30;;;;;;;0.60;0.10;;;20.30;57.50;;;;;;4898239;29;20592;-76
2023/08/29 12:24:59;;;;;;;0.60;0.10;;;21.30;56.60;;;;;;4898961;29;20447;-76
2023/08/29 12:27:27;;;;;;;0.60;0.20;;;20.30;55.40;;;;;;4897995;29;20507;-78
2023/08/29 12:29:55;;;;;;;0.60;0.10;;;20.30;66.40;;;;;;4900717;29;20484;-76
2023/08/29 12:32:27;;;;;;;0.60;0.10;;;20.40;57.40;;;;;;4899473;29;20487;-77
2023/08/29 12:34:56;;;;;;;0.60;0.20;;;20.40;57.40;;;;;;4899131;29;20500;-77
2023/08/29 12:37:26;;;;;;;0.60;0.10;;;;;;;;;;4900673;29;20535;-78
2023/08/29 12:39:55;;;;;;;0.60;0.10;;;;;;;;;;4909246;29;20535;-76
2023/08/29 12:42:23;;;;;;;0.60;0.10;;;20.60;57.00;;;;;;4902194;29;20469;-77
2023/08/29 12:44:54;;;;;;;0.60;0.10;;;20.60;68.00;;;;;;4896690;29;20515;-77
2023/08/29 12:47:22;;;;;;;0.60;0.17;;;20.60;61.70;;;;;;4900171;29;20924;-77
2023/08/29 12:49:51;;;;;;;0.60;0.17;;;20.60;50.90;;;;;;4899967;29;20463;-77
2023/08/29 12:52:20;;;;;;;0.60;0.20;;;;;;;;;;4902236;29;20573;-76
2023/08/29 12:54:48;;;;;;;0.60;0.10;;;;;;;;;;4904732;29;20518;-77
2023/08/29 12:57:17;;;;;;;0.60;0.10;;;20.60;47.70;;;;;;4901492;29;21173;-76
2023/08/29 12:59:45;;;;;;;0.60;0.10;;;20.60;47.20;;;;;;4907359;29;20467;-76
2023/08/29 13:02:13;;;;;;;0.60;0.13;;;20.70;47.00;;;;;;4901320;29;20481;-77
2023/08/29 13:04:41;;;;;;;0.60;0.20;;;20.70;58.20;;;;;;4902995;29;20459;-76
2023/08/29 13:07:10;;;;;;;0.60;0.20;;;20.80;48.30;;;;;;4902807;29;20456;-78
2023/08/29 13:09:39;;;;;;;0.60;0.20;;;20.80;48.70;;;;;;4903208;29;20510;-75
2023/08/29 13:12:08;;;;;;;0.60;0.10;;;20.90;49.00;;;;;;4901372;29;20523;-76
2023/08/29 13:14:36;;;;;;;0.60;0.10;;;20.80;59.50;;;;;;4900760;29;20480;-77
2023/08/29 13:17:07;;;;;;;0.60;0.10;;;20.90;60.30;;;;;;4901154;29;20491;-74
2023/08/29 13:19:40;;;;;;;0.60;0.20;;;20.90;60.40;;;;;;4903005;29;20459;-76
2023/08/29 13:22:11;;;;;;;0.60;0.10;;;;;;;;;;4904088;29;20527;-76
2023/08/29 13:24:41;;;;;;;0.60;0.10;;;20.90;45.80;;;;;;4905548;29;20452;-76
2023/08/29 13:27:09;;;;;;;0.60;0.20;;;20.90;56.20;;;;;;4902910;29;20540;-76
2023/08/29 13:29:37;;;;;;;0.60;0.20;;;20.90;45.10;;;;;;4900378;29;20484;-77
2023/08/29 13:32:06;;;;;;;0.60;0.10;;;21.00;44.90;;;;;;4901180;29;20983;-75
2023/08/29 13:34:34;;;;;;;0.60;0.10;;;21.00;43.80;;;;;;4905515;29;20464;-76
2023/08/29 13:37:02;;;;;;;0.60;0.10;;;21.00;56.50;;;;;;4899611;29;20942;-75
2023/08/29 13:39:30;;;;;;;0.60;0.20;;;21.10;69.50;;;;;;4899952;29;20456;-76
2023/08/29 13:41:59;;;;;;;0.60;0.10;;;21.10;70.40;;;;;;4900139;29;20528;-76
2023/08/29 13:44:27;;;;;;;0.60;0.20;;;20.90;64.90;;;;;;4899042;29;20458;-76
2023/08/29 13:46:55;;;;;;;0.60;0.30;;;20.90;66.30;;;;;;4898935;29;20486;-76
2023/08/29 13:49:23;;;;;;;0.60;0.10;;;20.80;78.20;;;;;;4900455;29;20594;-76
2023/08/29 13:51:51;;;;;;;0.60;0.20;;;20.80;70.20;;;;;;4899501;29;20476;-76
2023/08/29 13:54:27;;;;;;;0.60;0.23;;;20.80;77.60;;;;;;4899534;29;20476;-76
2023/08/29 13:56:56;;;;;;;0.60;0.17;;;20.80;70.60;;;;;;4898954;29;20911;-75
2023/08/29 13:59:25;;;;;;;0.60;0.10;;;20.80;72.30;;;;;;4899644;29;20455;-75
2023/08/29 14:01:53;;;;;;;0.60;0.20;;;20.90;72.60;;;;;;4900481;29;20502;-77
2023/08/29 14:04:21;;;;;;;0.70;0.27;;;20.90;82.60;;;;;;4898650;29;20484;-77
2023/08/29 14:06:49;;;;;;;0.60;0.10;;;20.80;71.50;;;;;;4899355;29;20499;-77
2023/08/29 14:09:18;;;;;;;0.60;0.10;;;;;;;;;;4898830;29;20495;-77
2023/08/29 14:11:46;;;;;;;0.90;0.40;;;20.70;67.50;;;;;;4900419;29;20471;-76
2023/08/29 14:14:15;;;;;;;0.90;0.40;;;20.70;78.30;;;;;;4898902;29;20530;-76
2023/08/29 14:16:45;;;;;;;1.03;0.93;;;20.60;79.70;;;;;;4898712;29;20467;-76
2023/08/29 14:19:13;;;;;;;0.60;0.20;;;20.40;81.50;;;;;;4899151;29;20452;-78
2023/08/29 14:21:41;;;;;;;0.60;0.10;;;20.40;77.00;;;;;;4899510;29;20489;-76
2023/08/29 14:24:09;;;;;;;0.60;0.10;;;20.50;76.10;;;;;;4898829;29;20542;-76
2023/08/29 14:26:37;;;;;;;0.60;0.10;;;20.50;65.80;;;;;;4899458;29;20533;-77
2023/08/29 14:29:06;;;;;;;0.60;0.10;;;20.50;65.20;;;;;;4898812;29;20492;-75
2023/08/29 14:31:34;;;;;;;0.60;0.20;;;20.70;62.50;;;;;;4899603;29;20570;-78
2023/08/29 14:34:04;;;;;;;0.70;0.40;;;20.70;69.10;;;;;;4900349;29;20453;-78
2023/08/29 14:36:32;;;;;;;0.60;0.20;;;20.70;68.60;;;;;;4900152;29;20531;-77
2023/08/29 14:39:01;;;;;;;0.60;0.17;;;20.60;58.10;;;;;;4899893;29;20457;-76
2023/08/29 14:41:29;;;;;;;0.60;0.20;;;20.60;58.90;;;;;;4899566;29;20536;-77
2023/08/29 14:43:57;;;;;;;0.60;0.10;;;20.60;53.70;;;;;;4898031;29;20451;-77
2023/08/29 14:46:25;;;;;;;0.60;0.20;;;20.50;63.80;;;;;;4899411;29;20483;-78
2023/08/29 14:48:53;;;;;;;0.60;0.10;;;20.50;66.50;;;;;;4902207;29;20488;-78
2023/08/29 14:51:22;;;;;;;0.60;0.10;;;20.50;55.30;;;;;;4899973;29;20986;-76
2023/08/29 14:53:52;;;;;;;0.60;0.10;;;20.50;54.90;;;;;;4900080;29;20787;-77
2023/08/29 14:56:20;;;;;;;0.60;0.20;;;;;;;;;;4899490;29;20464;-77
2023/08/29 14:58:48;;;;;;;0.60;0.10;;;20.40;55.70;;;;;;4898793;29;20573;-75
2023/08/29 15:01:16;;;;;;;0.60;0.10;;;;;;;;;;4898949;29;20491;-78
2023/08/29 15:03:44;;;;;;;0.60;0.20;;;19.90;59.70;;;;;;4900224;29;20524;-76
2023/08/29 15:06:14;;;;;;;0.60;0.10;;;20.40;75.60;;;;;;4899487;29;20885;-76
2023/08/29 15:08:43;;;;;;;0.60;0.10;;;20.30;77.10;;;;;;4899843;29;20522;-76
2023/08/29 15:11:11;;;;;;;0.60;0.10;;;20.20;82.30;;;;;;4901441;29;20595;-77
2023/08/29 15:13:39;;;;;;;0.60;0.10;;;20.20;92.60;;;;;;4900611;29;20451;-77
2023/08/29 15:16:13;;;;;;;0.60;0.10;;;20.10;89.50;;;;;;4898864;29;20521;-77
2023/08/29 15:18:42;;;;;;;0.60;0.10;;;20.10;95.10;;;;;;4897945;29;20956;-75
2023/08/29 15:21:10;;;;;;;0.60;0.10;;;20.00;86.20;;;;;;4900934;29;20505;-78
2023/08/29 15:23:38;;;;;;;0.60;0.10;;;20.00;86.10;;;;;;4899458;29;20445;-76
2023/08/29 15:26:10;;;;;;;0.60;0.20;;;19.60;96.50;;;;;;4898809;29;20492;-78
2023/08/29 15:28:38;;;;;;;0.60;0.10;;;19.60;96.70;;;;;;4898734;29;20550;-69
2023/08/29 15:31:06;;;;;;;0.60;0.10;;;19.40;99.90;;;;;;4898047;29;20473;-70
2023/08/29 15:33:35;;;;;;;0.60;0.10;;;19.40;99.90;;;;;;4893820;29;20466;-71
2023/08/29 15:36:03;;;;;;;0.60;0.20;;;19.20;99.90;;;;;;4898374;29;20447;-71
2023/08/29 15:38:32;;;;;;;0.60;0.10;;;19.20;99.90;;;;;;4888624;29;20910;-69
2023/08/29 15:41:00;;;;;;;0.60;0.10;;;19.40;99.90;;;;;;4893950;29;20492;-69
2023/08/29 15:43:32;;;;;;;0.60;0.20;;;19.40;99.90;;;;;;4897271;29;20458;-70
2023/08/29 15:46:00;;;;;;;0.60;0.20;;;17.20;99.90;;;;;;4893710;29;20556;-68
2023/08/29 15:48:28;;;;;;;0.60;0.10;;;19.10;99.90;;;;;;4897998;29;20869;-72
2023/08/29 15:50:56;;;;;;;0.60;0.10;;;;;;;;;;4901682;29;20517;-70
2023/08/29 15:53:24;;;;;;;0.60;0.20;;;19.20;99.90;;;;;;4899954;29;20474;-70
2023/08/29 15:56:00;;;;;;;0.60;0.20;;;19.20;99.90;;;;;;4900849;29;20458;-69
2023/08/29 15:58:30;;;;;;;0.60;0.10;;;19.20;99.90;;;;;;4899662;29;20471;-71
2023/08/29 16:00:59;;;;;;;0.60;0.10;;;19.30;99.90;;;;;;4898006;29;20483;-70
2023/08/29 16:03:27;;;;;;;0.60;0.20;;;19.30;99.90;;;;;;4896254;29;20464;-70
2023/08/29 16:05:55;;;;;;;0.60;0.20;;;19.30;99.90;;;;;;4895463;29;20487;-69
2023/08/29 16:08:24;;;;;;;0.60;0.10;;;19.50;99.90;;;;;;4897629;29;20531;-69
2023/08/29 16:10:52;;;;;;;0.60;0.10;;;19.60;99.90;;;;;;4897755;29;20496;-69
2023/08/29 16:13:20;;;;;;;0.60;0.10;;;19.60;99.90;;;;;;4897248;29;20667;-69
2023/08/29 16:15:54;;;;;;;0.60;0.10;;;19.80;99.90;;;;;;4898728;29;20517;-70
2023/08/29 16:18:22;;;;;;;0.60;0.20;;;19.70;99.90;;;;;;4898829;29;20529;-71
2023/08/29 16:20:52;;;;;;;0.60;0.10;;;19.90;99.90;;;;;;4899423;29;20526;-70
2023/08/29 16:23:20;;;;;;;0.60;0.20;;;19.90;99.90;;;;;;4932242;23;20936;-68
2023/08/29 16:25:49;;;;;;;0.60;0.20;;;20.00;99.90;;;;;;4892471;29;20483;-68
2023/08/29 16:28:19;;;;;;;0.60;0.13;;;20.00;99.90;;;;;;4894017;29;20454;-68
2023/08/29 16:30:49;;;;;;;1.93;1.07;;;;;;;;;;4893563;29;20968;-67
2023/08/29 16:33:19;;;;;;;0.60;0.20;;;20.00;99.90;;;;;;4893488;29;20519;-68
2023/08/29 16:35:48;;;;;;;0.60;0.20;;;20.00;99.90;;;;;;4893226;29;20543;-68
2023/08/29 16:38:15;;;;;;;0.60;0.10;;;20.00;99.90;;;;;;4894680;29;20455;-69
2023/08/29 16:40:43;;;;;;;0.60;0.10;;;20.00;97.90;;;;;;4895065;29;20464;-67
2023/08/29 16:43:11;;;;;;;0.60;0.10;;;20.00;97.60;;;;;;4894770;29;20504;-67
2023/08/29 16:45:39;;;;;;;0.60;0.20;;;20.00;99.90;;;;;;4894896;29;20487;-68
2023/08/29 16:48:07;;;;;;;0.60;0.10;;;20.00;99.90;;;;;;4895166;29;20458;-67
2023/08/29 16:50:37;;;;;;;0.60;0.10;;;17.20;98.20;;;;;;4894965;29;20817;-67
2023/08/29 16:53:05;;;;;;;0.60;0.20;;;;;;;;;;4894936;29;20475;-69
2023/08/29 16:55:36;;;;;;;0.60;0.10;;;19.90;99.90;;;;;;4894528;29;20459;-67
2023/08/29 16:58:04;;;;;;;0.60;0.10;;;20.00;99.80;;;;;;4894596;29;20452;-69
2023/08/29 17:00:32;;;;;;;0.60;0.20;;;20.00;99.90;;;;;;4895117;29;20519;-69
2023/08/29 17:03:04;;;;;;;0.60;0.17;;;20.00;97.10;;;;;;4894997;29;20515;-67
2023/08/29 17:05:39;;;;;;;0.60;0.10;;;19.90;97.00;;;;;;4894504;29;20455;-68